sensor_id;sensor_type;location;lat;lon;timestamp;P1;durP1;ratioP1;P2;durP2;ratioP2
9771;SDS011;4925;52.588;13.370;2023-04-15T00:01:06;16.63;;;14.03;;
9771;SDS011;4925;52.588;13.370;2023-04-15T00:03:32;17.90;;;14.73;;
9771;SDS011;4925;52.588;13.370;2023-04-15T00:05:58;19.27;;;16.37;;
9771;SDS011;4925;52.588;13.370;2023-04-15T00:08:24;16.73;;;14.63;;
9771;SDS011;4925;52.588;13.370;2023-04-15T00:10:49;17.13;;;14.93;;
9771;SDS011;4925;52.588;13.370;2023-04-15T00:13:15;19.83;;;15.53;;
9771;SDS011;4925;52.588;13.370;2023-04-15T00:15:40;19.27;;;16.10;;
9771;SDS011;4925;52.588;13.370;2023-04-15T00:18:07;18.77;;;15.70;;
9771;SDS011;4925;52.588;13.370;2023-04-15T00:20:33;20.67;;;17.30;;
9771;SDS011;4925;52.588;13.370;2023-04-15T00:22:59;21.50;;;16.50;;
9771;SDS011;4925;52.588;13.370;2023-04-15T00:25:26;19.47;;;16.27;;
9771;SDS011;4925;52.588;13.370;2023-04-15T00:27:53;19.27;;;16.67;;
9771;SDS011;4925;52.588;13.370;2023-04-15T00:30:18;19.80;;;16.10;;
9771;SDS011;4925;52.588;13.370;2023-04-15T00:32:44;20.13;;;16.43;;
9771;SDS011;4925;52.588;13.370;2023-04-15T00:35:10;19.73;;;16.60;;
9771;SDS011;4925;52.588;13.370;2023-04-15T00:37:36;20.07;;;16.67;;
9771;SDS011;4925;52.588;13.370;2023-04-15T00:40:02;18.60;;;15.93;;
9771;SDS011;4925;52.588;13.370;2023-04-15T00:42:30;23.70;;;17.27;;
9771;SDS011;4925;52.588;13.370;2023-04-15T00:44:56;20.77;;;17.00;;
9771;SDS011;4925;52.588;13.370;2023-04-15T00:47:22;18.27;;;15.27;;
9771;SDS011;4925;52.588;13.370;2023-04-15T00:49:47;19.90;;;16.70;;
9771;SDS011;4925;52.588;13.370;2023-04-15T00:52:13;22.20;;;17.33;;
9771;SDS011;4925;52.588;13.370;2023-04-15T00:54:39;22.17;;;16.73;;
9771;SDS011;4925;52.588;13.370;2023-04-15T00:57:05;21.47;;;17.83;;
9771;SDS011;4925;52.588;13.370;2023-04-15T00:59:32;21.53;;;17.33;;
9771;SDS011;4925;52.588;13.370;2023-04-15T01:01:58;20.30;;;17.03;;
9771;SDS011;4925;52.588;13.370;2023-04-15T01:04:24;19.97;;;17.13;;
9771;SDS011;4925;52.588;13.370;2023-04-15T01:06:50;21.57;;;17.37;;
9771;SDS011;4925;52.588;13.370;2023-04-15T01:09:16;20.57;;;17.50;;
9771;SDS011;4925;52.588;13.370;2023-04-15T01:11:42;23.17;;;19.00;;
9771;SDS011;4925;52.588;13.370;2023-04-15T01:14:08;24.43;;;19.53;;
9771;SDS011;4925;52.588;13.370;2023-04-15T01:16:35;23.60;;;19.20;;
9771;SDS011;4925;52.588;13.370;2023-04-15T01:19:04;24.27;;;18.60;;
9771;SDS011;4925;52.588;13.370;2023-04-15T01:21:35;23.40;;;19.53;;
9771;SDS011;4925;52.588;13.370;2023-04-15T01:24:04;25.00;;;19.83;;
9771;SDS011;4925;52.588;13.370;2023-04-15T01:26:34;23.33;;;19.37;;
9771;SDS011;4925;52.588;13.370;2023-04-15T01:29:04;24.90;;;19.27;;
9771;SDS011;4925;52.588;13.370;2023-04-15T01:31:30;26.00;;;18.87;;
9771;SDS011;4925;52.588;13.370;2023-04-15T01:33:57;25.63;;;19.73;;
9771;SDS011;4925;52.588;13.370;2023-04-15T01:36:23;23.93;;;18.87;;
9771;SDS011;4925;52.588;13.370;2023-04-15T01:38:49;25.67;;;19.83;;
9771;SDS011;4925;52.588;13.370;2023-04-15T01:41:15;26.10;;;20.30;;
9771;SDS011;4925;52.588;13.370;2023-04-15T01:43:45;25.67;;;19.63;;
9771;SDS011;4925;52.588;13.370;2023-04-15T01:46:11;25.27;;;20.47;;
9771;SDS011;4925;52.588;13.370;2023-04-15T01:48:36;28.37;;;19.47;;
9771;SDS011;4925;52.588;13.370;2023-04-15T01:51:02;26.10;;;19.20;;
9771;SDS011;4925;52.588;13.370;2023-04-15T01:53:28;25.17;;;19.57;;
9771;SDS011;4925;52.588;13.370;2023-04-15T01:55:54;25.93;;;19.27;;
9771;SDS011;4925;52.588;13.370;2023-04-15T01:58:19;25.33;;;19.53;;
9771;SDS011;4925;52.588;13.370;2023-04-15T02:00:45;21.70;;;17.93;;
9771;SDS011;4925;52.588;13.370;2023-04-15T02:03:11;27.83;;;20.47;;
9771;SDS011;4925;52.588;13.370;2023-04-15T02:05:37;25.93;;;18.90;;
9771;SDS011;4925;52.588;13.370;2023-04-15T02:08:03;23.83;;;18.63;;
9771;SDS011;4925;52.588;13.370;2023-04-15T02:10:28;25.97;;;19.57;;
9771;SDS011;4925;52.588;13.370;2023-04-15T02:12:54;27.60;;;20.10;;
9771;SDS011;4925;52.588;13.370;2023-04-15T02:15:20;25.63;;;18.73;;
9771;SDS011;4925;52.588;13.370;2023-04-15T02:17:46;24.53;;;20.50;;
9771;SDS011;4925;52.588;13.370;2023-04-15T02:20:15;24.60;;;18.67;;
9771;SDS011;4925;52.588;13.370;2023-04-15T02:22:42;27.60;;;21.50;;
9771;SDS011;4925;52.588;13.370;2023-04-15T02:25:08;27.13;;;20.47;;
9771;SDS011;4925;52.588;13.370;2023-04-15T02:27:34;29.07;;;19.20;;
9771;SDS011;4925;52.588;13.370;2023-04-15T02:30:01;23.60;;;19.27;;
9771;SDS011;4925;52.588;13.370;2023-04-15T02:32:27;26.50;;;19.40;;
9771;SDS011;4925;52.588;13.370;2023-04-15T02:34:53;28.33;;;20.87;;
9771;SDS011;4925;52.588;13.370;2023-04-15T02:37:19;24.00;;;19.13;;
9771;SDS011;4925;52.588;13.370;2023-04-15T02:39:45;29.50;;;19.63;;
9771;SDS011;4925;52.588;13.370;2023-04-15T02:42:11;23.00;;;18.90;;
9771;SDS011;4925;52.588;13.370;2023-04-15T02:44:37;26.00;;;18.87;;
9771;SDS011;4925;52.588;13.370;2023-04-15T02:47:03;24.63;;;18.67;;
9771;SDS011;4925;52.588;13.370;2023-04-15T02:49:31;26.87;;;18.93;;
9771;SDS011;4925;52.588;13.370;2023-04-15T02:51:57;25.17;;;18.70;;
9771;SDS011;4925;52.588;13.370;2023-04-15T02:54:24;26.23;;;19.50;;
9771;SDS011;4925;52.588;13.370;2023-04-15T02:56:51;25.10;;;19.93;;
9771;SDS011;4925;52.588;13.370;2023-04-15T02:59:19;24.97;;;19.27;;
9771;SDS011;4925;52.588;13.370;2023-04-15T03:01:45;22.07;;;17.73;;
9771;SDS011;4925;52.588;13.370;2023-04-15T03:04:11;25.17;;;19.00;;
9771;SDS011;4925;52.588;13.370;2023-04-15T03:06:37;26.73;;;19.43;;
9771;SDS011;4925;52.588;13.370;2023-04-15T03:09:03;25.93;;;18.50;;
9771;SDS011;4925;52.588;13.370;2023-04-15T03:11:29;24.87;;;18.83;;
9771;SDS011;4925;52.588;13.370;2023-04-15T03:13:55;25.90;;;19.10;;
9771;SDS011;4925;52.588;13.370;2023-04-15T03:16:22;25.63;;;19.57;;
9771;SDS011;4925;52.588;13.370;2023-04-15T03:18:48;25.93;;;20.10;;
9771;SDS011;4925;52.588;13.370;2023-04-15T03:21:14;24.50;;;18.87;;
9771;SDS011;4925;52.588;13.370;2023-04-15T03:23:40;24.97;;;19.37;;
9771;SDS011;4925;52.588;13.370;2023-04-15T03:26:06;25.63;;;20.30;;
9771;SDS011;4925;52.588;13.370;2023-04-15T03:28:31;24.90;;;18.93;;
9771;SDS011;4925;52.588;13.370;2023-04-15T03:30:57;24.50;;;19.47;;
9771;SDS011;4925;52.588;13.370;2023-04-15T03:33:23;25.77;;;18.10;;
9771;SDS011;4925;52.588;13.370;2023-04-15T03:35:49;22.70;;;18.63;;
9771;SDS011;4925;52.588;13.370;2023-04-15T03:38:16;26.90;;;19.50;;
9771;SDS011;4925;52.588;13.370;2023-04-15T03:40:42;21.47;;;17.80;;
9771;SDS011;4925;52.588;13.370;2023-04-15T03:43:08;26.23;;;18.90;;
9771;SDS011;4925;52.588;13.370;2023-04-15T03:45:34;24.23;;;18.60;;
9771;SDS011;4925;52.588;13.370;2023-04-15T03:48:00;25.83;;;19.50;;
9771;SDS011;4925;52.588;13.370;2023-04-15T03:50:25;21.97;;;17.17;;
9771;SDS011;4925;52.588;13.370;2023-04-15T03:52:51;23.23;;;17.67;;
9771;SDS011;4925;52.588;13.370;2023-04-15T03:55:17;24.03;;;17.70;;
9771;SDS011;4925;52.588;13.370;2023-04-15T03:57:43;24.93;;;17.73;;
9771;SDS011;4925;52.588;13.370;2023-04-15T04:00:09;23.30;;;17.33;;
9771;SDS011;4925;52.588;13.370;2023-04-15T04:02:35;23.13;;;18.27;;
9771;SDS011;4925;52.588;13.370;2023-04-15T04:05:01;24.27;;;17.67;;
9771;SDS011;4925;52.588;13.370;2023-04-15T04:07:28;24.03;;;17.10;;
9771;SDS011;4925;52.588;13.370;2023-04-15T04:09:54;24.97;;;16.83;;
9771;SDS011;4925;52.588;13.370;2023-04-15T04:12:21;22.07;;;16.73;;
9771;SDS011;4925;52.588;13.370;2023-04-15T04:14:46;22.73;;;17.70;;
9771;SDS011;4925;52.588;13.370;2023-04-15T04:17:12;23.17;;;17.57;;
9771;SDS011;4925;52.588;13.370;2023-04-15T04:19:38;18.60;;;15.87;;
9771;SDS011;4925;52.588;13.370;2023-04-15T04:22:03;21.90;;;17.20;;
9771;SDS011;4925;52.588;13.370;2023-04-15T04:24:29;22.90;;;17.00;;
9771;SDS011;4925;52.588;13.370;2023-04-15T04:26:55;22.43;;;17.27;;
9771;SDS011;4925;52.588;13.370;2023-04-15T04:29:21;22.20;;;16.90;;
9771;SDS011;4925;52.588;13.370;2023-04-15T04:31:47;25.63;;;17.53;;
9771;SDS011;4925;52.588;13.370;2023-04-15T04:34:13;21.50;;;16.83;;
9771;SDS011;4925;52.588;13.370;2023-04-15T04:36:39;22.27;;;16.37;;
9771;SDS011;4925;52.588;13.370;2023-04-15T04:39:05;19.33;;;15.77;;
9771;SDS011;4925;52.588;13.370;2023-04-15T04:41:31;19.63;;;15.73;;
9771;SDS011;4925;52.588;13.370;2023-04-15T04:43:57;20.90;;;16.47;;
9771;SDS011;4925;52.588;13.370;2023-04-15T04:46:22;19.13;;;15.33;;
9771;SDS011;4925;52.588;13.370;2023-04-15T04:48:48;22.07;;;16.60;;
9771;SDS011;4925;52.588;13.370;2023-04-15T04:51:14;19.00;;;14.67;;
9771;SDS011;4925;52.588;13.370;2023-04-15T04:53:40;23.70;;;16.73;;
9771;SDS011;4925;52.588;13.370;2023-04-15T04:56:07;21.87;;;15.87;;
9771;SDS011;4925;52.588;13.370;2023-04-15T04:58:33;20.73;;;15.53;;
9771;SDS011;4925;52.588;13.370;2023-04-15T05:00:58;18.73;;;15.37;;
9771;SDS011;4925;52.588;13.370;2023-04-15T05:03:24;19.30;;;16.13;;
9771;SDS011;4925;52.588;13.370;2023-04-15T05:05:50;20.07;;;14.63;;
9771;SDS011;4925;52.588;13.370;2023-04-15T05:08:16;17.33;;;14.57;;
9771;SDS011;4925;52.588;13.370;2023-04-15T05:10:41;19.90;;;15.53;;
9771;SDS011;4925;52.588;13.370;2023-04-15T05:13:07;19.07;;;16.30;;
9771;SDS011;4925;52.588;13.370;2023-04-15T05:15:33;20.17;;;14.23;;
9771;SDS011;4925;52.588;13.370;2023-04-15T05:18:00;18.70;;;14.27;;
9771;SDS011;4925;52.588;13.370;2023-04-15T05:20:26;20.00;;;14.43;;
9771;SDS011;4925;52.588;13.370;2023-04-15T05:22:52;29.60;;;22.83;;
9771;SDS011;4925;52.588;13.370;2023-04-15T05:25:18;46.07;;;35.20;;
9771;SDS011;4925;52.588;13.370;2023-04-15T05:27:44;19.33;;;15.53;;
9771;SDS011;4925;52.588;13.370;2023-04-15T05:30:10;19.33;;;13.53;;
9771;SDS011;4925;52.588;13.370;2023-04-15T05:32:36;17.50;;;14.73;;
9771;SDS011;4925;52.588;13.370;2023-04-15T05:35:02;16.87;;;14.53;;
9771;SDS011;4925;52.588;13.370;2023-04-15T05:37:27;16.47;;;13.33;;
9771;SDS011;4925;52.588;13.370;2023-04-15T05:39:53;17.80;;;13.67;;
9771;SDS011;4925;52.588;13.370;2023-04-15T05:42:19;14.77;;;13.10;;
9771;SDS011;4925;52.588;13.370;2023-04-15T05:44:44;18.77;;;13.70;;
9771;SDS011;4925;52.588;13.370;2023-04-15T05:47:10;14.00;;;12.50;;
9771;SDS011;4925;52.588;13.370;2023-04-15T05:49:36;15.67;;;12.57;;
9771;SDS011;4925;52.588;13.370;2023-04-15T05:52:02;14.53;;;12.47;;
9771;SDS011;4925;52.588;13.370;2023-04-15T05:54:27;14.37;;;11.83;;
9771;SDS011;4925;52.588;13.370;2023-04-15T05:56:53;15.37;;;12.47;;
9771;SDS011;4925;52.588;13.370;2023-04-15T05:59:19;15.57;;;12.73;;
9771;SDS011;4925;52.588;13.370;2023-04-15T06:01:45;17.00;;;12.30;;
9771;SDS011;4925;52.588;13.370;2023-04-15T06:04:11;13.03;;;11.07;;
9771;SDS011;4925;52.588;13.370;2023-04-15T06:06:36;14.03;;;11.07;;
9771;SDS011;4925;52.588;13.370;2023-04-15T06:09:02;16.07;;;12.30;;
9771;SDS011;4925;52.588;13.370;2023-04-15T06:11:28;14.87;;;11.23;;
9771;SDS011;4925;52.588;13.370;2023-04-15T06:13:54;12.53;;;10.67;;
9771;SDS011;4925;52.588;13.370;2023-04-15T06:16:20;12.70;;;11.03;;
9771;SDS011;4925;52.588;13.370;2023-04-15T06:18:47;13.50;;;10.73;;
9771;SDS011;4925;52.588;13.370;2023-04-15T06:21:13;11.47;;;9.70;;
9771;SDS011;4925;52.588;13.370;2023-04-15T06:23:39;12.90;;;10.10;;
9771;SDS011;4925;52.588;13.370;2023-04-15T06:26:05;13.50;;;10.53;;
9771;SDS011;4925;52.588;13.370;2023-04-15T06:28:31;10.50;;;8.90;;
9771;SDS011;4925;52.588;13.370;2023-04-15T06:30:57;10.03;;;9.03;;
9771;SDS011;4925;52.588;13.370;2023-04-15T06:33:23;12.40;;;9.73;;
9771;SDS011;4925;52.588;13.370;2023-04-15T06:35:48;11.07;;;9.27;;
9771;SDS011;4925;52.588;13.370;2023-04-15T06:38:14;10.43;;;9.00;;
9771;SDS011;4925;52.588;13.370;2023-04-15T06:40:40;9.60;;;8.60;;
9771;SDS011;4925;52.588;13.370;2023-04-15T06:43:06;12.57;;;8.87;;
9771;SDS011;4925;52.588;13.370;2023-04-15T06:45:32;9.87;;;8.23;;
9771;SDS011;4925;52.588;13.370;2023-04-15T06:47:57;13.57;;;9.50;;
9771;SDS011;4925;52.588;13.370;2023-04-15T06:50:23;11.73;;;9.33;;
9771;SDS011;4925;52.588;13.370;2023-04-15T06:52:49;11.13;;;9.33;;
9771;SDS011;4925;52.588;13.370;2023-04-15T06:55:15;10.40;;;9.30;;
9771;SDS011;4925;52.588;13.370;2023-04-15T06:57:40;9.50;;;8.50;;
9771;SDS011;4925;52.588;13.370;2023-04-15T07:00:06;8.83;;;7.87;;
9771;SDS011;4925;52.588;13.370;2023-04-15T07:02:35;12.93;;;8.27;;
9771;SDS011;4925;52.588;13.370;2023-04-15T07:05:00;11.50;;;7.93;;
9771;SDS011;4925;52.588;13.370;2023-04-15T07:07:26;12.77;;;9.13;;
9771;SDS011;4925;52.588;13.370;2023-04-15T07:09:52;8.77;;;7.83;;
9771;SDS011;4925;52.588;13.370;2023-04-15T07:12:18;9.03;;;7.90;;
9771;SDS011;4925;52.588;13.370;2023-04-15T07:14:44;12.10;;;8.53;;
9771;SDS011;4925;52.588;13.370;2023-04-15T07:17:10;9.90;;;8.70;;
9771;SDS011;4925;52.588;13.370;2023-04-15T07:19:37;9.57;;;7.67;;
9771;SDS011;4925;52.588;13.370;2023-04-15T07:22:02;11.77;;;8.50;;
9771;SDS011;4925;52.588;13.370;2023-04-15T07:24:28;9.00;;;7.67;;
9771;SDS011;4925;52.588;13.370;2023-04-15T07:26:54;9.17;;;8.20;;
9771;SDS011;4925;52.588;13.370;2023-04-15T07:29:23;12.93;;;8.37;;
9771;SDS011;4925;52.588;13.370;2023-04-15T07:31:49;9.30;;;8.30;;
9771;SDS011;4925;52.588;13.370;2023-04-15T07:34:15;9.20;;;8.27;;
9771;SDS011;4925;52.588;13.370;2023-04-15T07:36:41;10.70;;;8.93;;
9771;SDS011;4925;52.588;13.370;2023-04-15T07:39:07;11.63;;;8.47;;
9771;SDS011;4925;52.588;13.370;2023-04-15T07:41:33;10.17;;;9.07;;
9771;SDS011;4925;52.588;13.370;2023-04-15T07:43:58;11.30;;;10.20;;
9771;SDS011;4925;52.588;13.370;2023-04-15T07:46:24;10.87;;;9.53;;
9771;SDS011;4925;52.588;13.370;2023-04-15T07:48:51;10.93;;;9.20;;
9771;SDS011;4925;52.588;13.370;2023-04-15T07:51:18;12.83;;;8.90;;
9771;SDS011;4925;52.588;13.370;2023-04-15T07:53:48;9.43;;;8.53;;
9771;SDS011;4925;52.588;13.370;2023-04-15T07:56:14;9.13;;;8.00;;
9771;SDS011;4925;52.588;13.370;2023-04-15T07:58:40;11.50;;;10.30;;
9771;SDS011;4925;52.588;13.370;2023-04-15T08:01:06;11.57;;;9.13;;
9771;SDS011;4925;52.588;13.370;2023-04-15T08:03:32;11.73;;;9.20;;
9771;SDS011;4925;52.588;13.370;2023-04-15T08:05:58;9.43;;;8.53;;
9771;SDS011;4925;52.588;13.370;2023-04-15T08:08:24;11.43;;;8.67;;
9771;SDS011;4925;52.588;13.370;2023-04-15T08:10:50;11.03;;;9.73;;
9771;SDS011;4925;52.588;13.370;2023-04-15T08:13:16;12.43;;;10.20;;
9771;SDS011;4925;52.588;13.370;2023-04-15T08:15:42;11.13;;;9.60;;
9771;SDS011;4925;52.588;13.370;2023-04-15T08:18:08;9.47;;;8.53;;
9771;SDS011;4925;52.588;13.370;2023-04-15T08:20:34;11.37;;;9.27;;
9771;SDS011;4925;52.588;13.370;2023-04-15T08:23:01;12.93;;;9.53;;
9771;SDS011;4925;52.588;13.370;2023-04-15T08:25:27;11.73;;;10.60;;
9771;SDS011;4925;52.588;13.370;2023-04-15T08:27:56;13.27;;;8.70;;
9771;SDS011;4925;52.588;13.370;2023-04-15T08:30:22;10.57;;;9.47;;
9771;SDS011;4925;52.588;13.370;2023-04-15T08:32:48;13.67;;;10.57;;
9771;SDS011;4925;52.588;13.370;2023-04-15T08:35:15;10.93;;;9.53;;
9771;SDS011;4925;52.588;13.370;2023-04-15T08:37:40;11.73;;;9.70;;
9771;SDS011;4925;52.588;13.370;2023-04-15T08:40:06;12.20;;;9.63;;
9771;SDS011;4925;52.588;13.370;2023-04-15T08:42:41;12.03;;;9.57;;
9771;SDS011;4925;52.588;13.370;2023-04-15T08:45:10;10.70;;;9.53;;
9771;SDS011;4925;52.588;13.370;2023-04-15T08:47:36;10.47;;;9.40;;
9771;SDS011;4925;52.588;13.370;2023-04-15T08:50:07;11.97;;;10.00;;
9771;SDS011;4925;52.588;13.370;2023-04-15T08:52:33;11.23;;;10.03;;
9771;SDS011;4925;52.588;13.370;2023-04-15T08:54:59;10.50;;;9.40;;
9771;SDS011;4925;52.588;13.370;2023-04-15T08:57:27;10.73;;;9.63;;
9771;SDS011;4925;52.588;13.370;2023-04-15T08:59:55;11.77;;;9.17;;
9771;SDS011;4925;52.588;13.370;2023-04-15T09:02:22;11.67;;;9.83;;
9771;SDS011;4925;52.588;13.370;2023-04-15T09:04:49;13.10;;;10.17;;
9771;SDS011;4925;52.588;13.370;2023-04-15T09:07:15;10.80;;;9.77;;
9771;SDS011;4925;52.588;13.370;2023-04-15T09:09:41;11.73;;;9.93;;
9771;SDS011;4925;52.588;13.370;2023-04-15T09:12:07;10.63;;;9.57;;
9771;SDS011;4925;52.588;13.370;2023-04-15T09:14:34;13.37;;;9.63;;
9771;SDS011;4925;52.588;13.370;2023-04-15T09:17:01;12.10;;;9.47;;
9771;SDS011;4925;52.588;13.370;2023-04-15T09:19:28;10.63;;;9.53;;
9771;SDS011;4925;52.588;13.370;2023-04-15T09:21:55;10.50;;;9.50;;
9771;SDS011;4925;52.588;13.370;2023-04-15T09:24:22;10.23;;;9.23;;
9771;SDS011;4925;52.588;13.370;2023-04-15T09:26:52;9.33;;;8.43;;
9771;SDS011;4925;52.588;13.370;2023-04-15T09:29:23;11.00;;;9.43;;
9771;SDS011;4925;52.588;13.370;2023-04-15T09:31:49;10.67;;;9.20;;
9771;SDS011;4925;52.588;13.370;2023-04-15T09:34:15;11.63;;;8.93;;
9771;SDS011;4925;52.588;13.370;2023-04-15T09:39:10;10.20;;;9.10;;
9771;SDS011;4925;52.588;13.370;2023-04-15T09:41:36;10.50;;;9.47;;
9771;SDS011;4925;52.588;13.370;2023-04-15T09:44:02;10.90;;;9.63;;
9771;SDS011;4925;52.588;13.370;2023-04-15T09:46:41;11.07;;;9.40;;
9771;SDS011;4925;52.588;13.370;2023-04-15T09:49:08;9.77;;;8.77;;
9771;SDS011;4925;52.588;13.370;2023-04-15T09:51:35;11.70;;;9.23;;
9771;SDS011;4925;52.588;13.370;2023-04-15T09:54:01;9.70;;;8.70;;
9771;SDS011;4925;52.588;13.370;2023-04-15T09:56:33;11.57;;;9.93;;
9771;SDS011;4925;52.588;13.370;2023-04-15T09:59:05;10.27;;;9.27;;
9771;SDS011;4925;52.588;13.370;2023-04-15T10:01:31;11.50;;;10.30;;
9771;SDS011;4925;52.588;13.370;2023-04-15T10:03:57;12.13;;;9.73;;
9771;SDS011;4925;52.588;13.370;2023-04-15T10:06:26;11.43;;;10.37;;
9771;SDS011;4925;52.588;13.370;2023-04-15T10:08:53;10.87;;;9.77;;
9771;SDS011;4925;52.588;13.370;2023-04-15T10:11:20;11.20;;;9.70;;
9771;SDS011;4925;52.588;13.370;2023-04-15T10:13:48;13.63;;;9.43;;
9771;SDS011;4925;52.588;13.370;2023-04-15T10:16:16;13.00;;;9.67;;
9771;SDS011;4925;52.588;13.370;2023-04-15T10:18:51;11.90;;;9.60;;
9771;SDS011;4925;52.588;13.370;2023-04-15T10:21:20;12.27;;;10.43;;
9771;SDS011;4925;52.588;13.370;2023-04-15T10:23:47;14.37;;;10.07;;
9771;SDS011;4925;52.588;13.370;2023-04-15T10:26:26;11.23;;;9.97;;
9771;SDS011;4925;52.588;13.370;2023-04-15T10:28:53;10.67;;;9.63;;
9771;SDS011;4925;52.588;13.370;2023-04-15T10:31:19;11.67;;;10.47;;
9771;SDS011;4925;52.588;13.370;2023-04-15T10:33:45;10.77;;;9.67;;
9771;SDS011;4925;52.588;13.370;2023-04-15T10:36:12;11.13;;;9.57;;
9771;SDS011;4925;52.588;13.370;2023-04-15T10:38:40;9.73;;;8.73;;
9771;SDS011;4925;52.588;13.370;2023-04-15T10:44:00;10.13;;;9.03;;
9771;SDS011;4925;52.588;13.370;2023-04-15T10:46:37;12.37;;;9.77;;
9771;SDS011;4925;52.588;13.370;2023-04-15T10:49:12;10.97;;;9.80;;
9771;SDS011;4925;52.588;13.370;2023-04-15T10:51:42;10.43;;;9.17;;
9771;SDS011;4925;52.588;13.370;2023-04-15T10:54:15;10.27;;;9.27;;
9771;SDS011;4925;52.588;13.370;2023-04-15T10:59:36;10.57;;;9.47;;
9771;SDS011;4925;52.588;13.370;2023-04-15T11:02:04;10.60;;;9.30;;
9771;SDS011;4925;52.588;13.370;2023-04-15T11:12:52;8.90;;;8.10;;
9771;SDS011;4925;52.588;13.370;2023-04-15T11:15:24;11.47;;;9.33;;
9771;SDS011;4925;52.588;13.370;2023-04-15T11:17:55;9.03;;;8.23;;
9771;SDS011;4925;52.588;13.370;2023-04-15T11:20:21;10.37;;;8.33;;
9771;SDS011;4925;52.588;13.370;2023-04-15T11:22:48;9.40;;;8.40;;
9771;SDS011;4925;52.588;13.370;2023-04-15T11:27:52;23.03;;;18.10;;
9771;SDS011;4925;52.588;13.370;2023-04-15T11:30:20;15.40;;;13.33;;
9771;SDS011;4925;52.588;13.370;2023-04-15T11:32:50;9.83;;;8.83;;
9771;SDS011;4925;52.588;13.370;2023-04-15T11:35:17;10.50;;;9.40;;
9771;SDS011;4925;52.588;13.370;2023-04-15T11:37:44;9.03;;;8.13;;
9771;SDS011;4925;52.588;13.370;2023-04-15T11:40:10;10.20;;;9.20;;
9771;SDS011;4925;52.588;13.370;2023-04-15T11:42:36;10.10;;;9.10;;
9771;SDS011;4925;52.588;13.370;2023-04-15T11:45:10;10.53;;;9.17;;
9771;SDS011;4925;52.588;13.370;2023-04-15T11:47:40;11.37;;;8.60;;
9771;SDS011;4925;52.588;13.370;2023-04-15T11:50:13;9.53;;;8.53;;
9771;SDS011;4925;52.588;13.370;2023-04-15T11:52:40;10.70;;;8.47;;
9771;SDS011;4925;52.588;13.370;2023-04-15T11:55:16;9.47;;;8.07;;
9771;SDS011;4925;52.588;13.370;2023-04-15T11:57:42;10.67;;;8.70;;
9771;SDS011;4925;52.588;13.370;2023-04-15T12:00:08;12.40;;;9.53;;
9771;SDS011;4925;52.588;13.370;2023-04-15T12:02:37;9.33;;;8.43;;
9771;SDS011;4925;52.588;13.370;2023-04-15T12:05:03;9.43;;;8.43;;
9771;SDS011;4925;52.588;13.370;2023-04-15T12:07:30;8.97;;;8.17;;
9771;SDS011;4925;52.588;13.370;2023-04-15T12:09:57;11.10;;;7.97;;
9771;SDS011;4925;52.588;13.370;2023-04-15T12:12:28;7.83;;;7.13;;
9771;SDS011;4925;52.588;13.370;2023-04-15T12:14:58;9.57;;;8.33;;
9771;SDS011;4925;52.588;13.370;2023-04-15T12:17:24;11.43;;;8.87;;
9771;SDS011;4925;52.588;13.370;2023-04-15T12:19:54;32.37;;;23.80;;
9771;SDS011;4925;52.588;13.370;2023-04-15T12:22:20;14.23;;;12.30;;
9771;SDS011;4925;52.588;13.370;2023-04-15T12:24:46;12.87;;;9.87;;
9771;SDS011;4925;52.588;13.370;2023-04-15T12:27:24;9.13;;;8.23;;
9771;SDS011;4925;52.588;13.370;2023-04-15T12:29:56;9.53;;;8.53;;
9771;SDS011;4925;52.588;13.370;2023-04-15T12:32:29;8.60;;;7.77;;
9771;SDS011;4925;52.588;13.370;2023-04-15T12:34:59;9.00;;;8.10;;
9771;SDS011;4925;52.588;13.370;2023-04-15T12:37:24;11.63;;;8.37;;
9771;SDS011;4925;52.588;13.370;2023-04-15T12:39:50;8.13;;;7.37;;
9771;SDS011;4925;52.588;13.370;2023-04-15T12:42:16;10.57;;;8.03;;
9771;SDS011;4925;52.588;13.370;2023-04-15T12:44:42;8.67;;;7.10;;
9771;SDS011;4925;52.588;13.370;2023-04-15T12:47:09;7.97;;;7.17;;
9771;SDS011;4925;52.588;13.370;2023-04-15T12:49:35;7.97;;;7.17;;
9771;SDS011;4925;52.588;13.370;2023-04-15T12:52:02;8.57;;;7.70;;
9771;SDS011;4925;52.588;13.370;2023-04-15T12:54:28;7.83;;;7.07;;
9771;SDS011;4925;52.588;13.370;2023-04-15T12:56:55;7.83;;;7.03;;
9771;SDS011;4925;52.588;13.370;2023-04-15T12:59:22;7.20;;;6.50;;
9771;SDS011;4925;52.588;13.370;2023-04-15T13:01:48;7.23;;;6.60;;
9771;SDS011;4925;52.588;13.370;2023-04-15T13:04:15;8.53;;;7.63;;
9771;SDS011;4925;52.588;13.370;2023-04-15T13:06:41;7.30;;;6.60;;
9771;SDS011;4925;52.588;13.370;2023-04-15T13:09:07;7.77;;;6.97;;
9771;SDS011;4925;52.588;13.370;2023-04-15T13:11:33;8.20;;;7.43;;
9771;SDS011;4925;52.588;13.370;2023-04-15T13:14:00;8.07;;;7.27;;
9771;SDS011;4925;52.588;13.370;2023-04-15T13:16:30;8.33;;;7.47;;
9771;SDS011;4925;52.588;13.370;2023-04-15T13:18:57;11.43;;;7.27;;
9771;SDS011;4925;52.588;13.370;2023-04-15T13:21:23;8.33;;;7.20;;
9771;SDS011;4925;52.588;13.370;2023-04-15T13:23:49;8.43;;;7.57;;
9771;SDS011;4925;52.588;13.370;2023-04-15T13:26:16;7.70;;;6.80;;
9771;SDS011;4925;52.588;13.370;2023-04-15T13:28:42;7.60;;;6.80;;
9771;SDS011;4925;52.588;13.370;2023-04-15T13:31:08;7.93;;;7.20;;
9771;SDS011;4925;52.588;13.370;2023-04-15T13:33:33;38.33;;;27.40;;
9771;SDS011;4925;52.588;13.370;2023-04-15T13:35:59;19.67;;;14.83;;
9771;SDS011;4925;52.588;13.370;2023-04-15T13:38:25;10.27;;;9.17;;
9771;SDS011;4925;52.588;13.370;2023-04-15T13:40:50;9.37;;;7.97;;
9771;SDS011;4925;52.588;13.370;2023-04-15T13:43:16;12.13;;;8.23;;
9771;SDS011;4925;52.588;13.370;2023-04-15T13:45:42;9.33;;;7.47;;
9771;SDS011;4925;52.588;13.370;2023-04-15T13:48:08;9.03;;;7.90;;
9771;SDS011;4925;52.588;13.370;2023-04-15T13:50:34;9.70;;;8.10;;
9771;SDS011;4925;52.588;13.370;2023-04-15T13:53:00;9.93;;;8.93;;
9771;SDS011;4925;52.588;13.370;2023-04-15T13:55:25;9.70;;;8.77;;
9771;SDS011;4925;52.588;13.370;2023-04-15T13:57:51;8.70;;;7.80;;
9771;SDS011;4925;52.588;13.370;2023-04-15T14:00:17;9.53;;;7.50;;
9771;SDS011;4925;52.588;13.370;2023-04-15T14:02:43;11.93;;;8.17;;
9771;SDS011;4925;52.588;13.370;2023-04-15T14:05:09;8.43;;;7.53;;
9771;SDS011;4925;52.588;13.370;2023-04-15T14:07:35;8.97;;;8.07;;
9771;SDS011;4925;52.588;13.370;2023-04-15T14:10:01;7.47;;;6.77;;
9771;SDS011;4925;52.588;13.370;2023-04-15T14:12:27;7.30;;;6.67;;
9771;SDS011;4925;52.588;13.370;2023-04-15T14:14:53;12.70;;;8.20;;
9771;SDS011;4925;52.588;13.370;2023-04-15T14:17:19;46.27;;;32.50;;
9771;SDS011;4925;52.588;13.370;2023-04-15T14:19:44;14.53;;;12.53;;
9771;SDS011;4925;52.588;13.370;2023-04-15T14:22:10;7.13;;;6.53;;
9771;SDS011;4925;52.588;13.370;2023-04-15T14:24:36;7.73;;;5.93;;
9771;SDS011;4925;52.588;13.370;2023-04-15T14:27:02;6.73;;;6.13;;
9771;SDS011;4925;52.588;13.370;2023-04-15T14:29:27;6.70;;;6.07;;
9771;SDS011;4925;52.588;13.370;2023-04-15T14:31:53;6.80;;;5.77;;
9771;SDS011;4925;52.588;13.370;2023-04-15T14:34:21;7.27;;;6.00;;
9771;SDS011;4925;52.588;13.370;2023-04-15T14:36:49;6.27;;;5.63;;
9771;SDS011;4925;52.588;13.370;2023-04-15T14:39:16;7.07;;;6.37;;
9771;SDS011;4925;52.588;13.370;2023-04-15T14:41:41;7.37;;;6.67;;
9771;SDS011;4925;52.588;13.370;2023-04-15T14:44:07;7.23;;;6.57;;
9771;SDS011;4925;52.588;13.370;2023-04-15T14:46:35;6.73;;;6.13;;
9771;SDS011;4925;52.588;13.370;2023-04-15T14:49:01;6.57;;;5.87;;
9771;SDS011;4925;52.588;13.370;2023-04-15T14:51:27;6.67;;;5.47;;
9771;SDS011;4925;52.588;13.370;2023-04-15T14:53:53;6.77;;;6.23;;
9771;SDS011;4925;52.588;13.370;2023-04-15T14:56:18;6.27;;;5.77;;
9771;SDS011;4925;52.588;13.370;2023-04-15T14:58:44;8.33;;;6.10;;